LFLYLFAQ

Guest
Details From LFLY - Lyon Bron
To LFAQ - Albert Bray
Flight Number -
Tags generated
Created
Modified
Stats Distance 271 nm / 503 km
Max Altitude 32,500 ft / 9,906 m
Waypoints 6
Social Downloads 0
Likes 0
Share VATSIM

Download

Looking for another format? Having issues loading an existing format? Contact us
Advertisement - Login to hide

Notes

Basic altitude profile: - Ascent Rate: 2500ft/min - Ascent Speed: 250kts - Cruise Altitude: 35000ft - Cruise Speed: 420kts - Descent Rate: 1500ft/min - Descent Speed: 250kts Options: - Use NATs: yes - Use PACOTS: yes - Use low airways: yes - Use high airways: yes

Route

LFLY ATN UM976 BRY LFAQ

ID Type Via Altitude Latitude Longitude Leg Dist Tot Dist Heading (true) Name
O LFLY APT - 0 ft / 0 m 45.72717˚ 4.94427˚ - 0 nm - Lyon Bron
ATN VOR - 24,200 ft / 7,376 m 46.80594˚ 4.25914˚ 70 nm 70 nm 337° / 336° -
AVLON FIX UM976 (AWY-HI) 32,500 ft / 9,906 m 47.56000˚ 3.81333˚ 48 nm 119 nm 338° / 338° -
OKRIX FIX UM976 (AWY-HI) 26,800 ft / 8,169 m 47.96611˚ 3.56750˚ 26 nm 145 nm 338° / 338° -
BRY VOR UM976 (AWY-HI) 20,700 ft / 6,309 m 48.40700˚ 3.29478˚ 28 nm 174 nm 338° / 337° BRAY SUR SEINE VOR-DME
O LFAQ APT - 0 ft / 0 m 49.97153˚ 2.69766˚ 96 nm 271 nm 346° / 346° Albert Bray

Altitude Profile

Advertisement - Login to hide

Weather


0- 5 10 15 20 25 30 35+ Temperature / ° C

Clouds and Precipitation
Forecast for 2017-12-14 12:00 UTC. Updated 2 hours ago

Ground ~20,000 ft ~40,000 ft Winds

LFLY

Details ICAO LFLY (LYN)
Name Lyon Bron
Region France
Timezone Europe/Paris (UTC+1.0)
Stats Elevation 659 ft / 201 m (AMSL)
Location 45.727171° 4.944274°
Runways 1
Magnetic Variation 1.450° E

METAR

LFLY 141230Z AUTO 19010KT 9999 RA FEW036/// BKN047/// OVC056/// ///TCU 11/07 Q1007 BECMG NSW BKN045

Decode

TAF

TAF LFLY 141100Z 1412/1512 18009KT 9999 BKN045 TEMPO 1421/1501 27015G25KT 4000 SHRA BKN014 SCT030TCU PROB40 TEMPO 1422/1501 SCT025CB BECMG 1501/1503 CAVOK

Decode

Departure Runways

ID Width Length Bearing (true) Bearing (mag) Surface Threshold Offset Overrun Length
16 148 ft / 45 m 5,972 ft / 1,820 m 163.44° 161.99° Asphalt 984 ft / 300 m 0 ft / 0 m
34 148 ft / 45 m 5,972 ft / 1,820 m 343.44° 341.99° Asphalt 984 ft / 300 m 0 ft / 0 m

LFAQ

Details ICAO LFAQ
Name Albert Bray
Region France
Timezone Europe/Paris (UTC+1.0)
Stats Elevation 364 ft / 111 m (AMSL)
Location 49.971529° 2.697660°
Runways 1
Magnetic Variation 0.619° E

METAR

LFAQ 141230Z AUTO 23019KT 9999 BKN020 BKN026 BKN084 05/03 Q0995 TEMPO 23020G35KT 3000 SHRA BKN007 BKN013CB

Decode

TAF

Not found

Destination Runways

ID Width Length Bearing (true) Bearing (mag) Surface Threshold Offset Overrun Length
09 82 ft / 25 m 3,827 ft / 1,167 m 89.92° 89.30° Asphalt 623 ft / 190 m 0 ft / 0 m
27 82 ft / 25 m 3,827 ft / 1,167 m 269.93° 269.31° Asphalt 820 ft / 250 m 0 ft / 0 m